createdAt,value
2019-05-05T00:01:58.323Z,44.58
2019-05-05T00:04:49.976Z,47.29
2019-05-05T00:07:20.053Z,46.45
2019-05-05T00:09:47.807Z,44.83
2019-05-05T00:12:29.541Z,44.42
2019-05-05T00:15:15.482Z,45.29
2019-05-05T00:17:45.028Z,45.40
2019-05-05T00:20:14.484Z,46.03
2019-05-05T00:22:54.620Z,44.81
2019-05-05T00:25:24.840Z,44.42
2019-05-05T00:27:52.064Z,44.86
2019-05-05T00:30:19.804Z,44.14
2019-05-05T00:32:47.538Z,44.77
2019-05-05T00:35:15.363Z,43.96
2019-05-05T00:37:44.949Z,43.76
2019-05-05T00:40:14.215Z,43.83
2019-05-05T00:42:42.069Z,43.78
2019-05-05T00:45:09.848Z,43.59
2019-05-05T00:48:11.754Z,44.36
2019-05-05T00:50:39.561Z,45.49
2019-05-05T00:53:07.370Z,44.73
2019-05-05T00:55:35.131Z,44.13
2019-05-05T00:58:05.125Z,44.32
2019-05-05T01:00:44.430Z,44.57
2019-05-05T01:03:12.621Z,44.84
2019-05-05T01:06:05.633Z,44.59
2019-05-05T01:08:35.234Z,45.04
2019-05-05T01:11:04.119Z,44.73
2019-05-05T01:13:34.928Z,44.21
2019-05-05T01:16:04.771Z,43.77
2019-05-05T01:18:34.980Z,44.60
2019-05-05T01:21:04.392Z,43.90
2019-05-05T01:23:31.712Z,45.94
2019-05-05T01:25:59.412Z,45.14
2019-05-05T01:28:27.254Z,44.05
2019-05-05T01:31:09.716Z,44.16
2019-05-05T01:33:44.791Z,46.38
2019-05-05T01:36:12.331Z,44.32
2019-05-05T01:38:48.450Z,44.72
2019-05-05T01:41:22.934Z,45.06
2019-05-05T01:43:50.647Z,44.67
2019-05-05T01:46:18.387Z,44.80
2019-05-05T01:48:46.130Z,45.80
2019-05-05T01:51:14.345Z,44.62
2019-05-05T01:53:44.145Z,45.67
2019-05-05T01:56:24.773Z,45.45
2019-05-05T01:58:54.599Z,46.03
2019-05-05T02:01:22.155Z,45.27
2019-05-05T02:03:49.899Z,45.13
2019-05-05T02:06:17.628Z,44.11
2019-05-05T02:08:45.562Z,45.03
2019-05-05T02:11:15.489Z,46.30
2019-05-05T02:13:44.970Z,44.72
2019-05-05T02:16:12.271Z,46.15
2019-05-05T02:18:40.031Z,45.00
2019-05-05T02:21:08.083Z,46.71
2019-05-05T02:23:35.948Z,44.95
2019-05-05T02:26:04.626Z,44.99
2019-05-05T02:28:51.659Z,44.28
2019-05-05T02:31:28.697Z,45.23
2019-05-05T02:33:57.035Z,45.15
2019-05-05T02:36:25.788Z,44.45
2019-05-05T02:38:56.644Z,45.64
2019-05-05T02:41:25.475Z,44.22
2019-05-05T02:43:55.486Z,45.21
2019-05-05T02:49:22.195Z,44.38
2019-05-05T02:51:49.991Z,45.30
2019-05-05T02:54:18.126Z,44.62
2019-05-05T02:56:47.701Z,44.42
2019-05-05T02:59:19.933Z,46.54
2019-05-05T03:01:58.208Z,46.35
2019-05-05T03:04:26.018Z,45.16
2019-05-05T03:06:54.233Z,44.57
2019-05-05T03:09:24.225Z,45.50
2019-05-05T03:11:55.230Z,45.77
2019-05-05T03:14:23.683Z,45.19
2019-05-05T03:16:54.047Z,45.52
2019-05-05T03:19:23.443Z,44.86
2019-05-05T03:21:50.819Z,45.59
2019-05-05T03:24:18.568Z,45.18
2019-05-05T03:26:46.422Z,43.75
2019-05-05T03:29:17.697Z,46.92
2019-05-05T03:31:46.098Z,44.77
2019-05-05T03:34:16.430Z,46.82
2019-05-05T03:36:44.185Z,44.86
2019-05-05T03:39:17.439Z,44.98
2019-05-05T03:41:54.374Z,44.74
2019-05-05T03:44:28.551Z,44.83
2019-05-05T03:46:56.401Z,44.62
2019-05-05T03:49:27.329Z,45.09
2019-05-05T03:51:55.201Z,45.11
2019-05-05T03:54:23.885Z,45.90
2019-05-05T03:57:25.015Z,44.95
2019-05-05T03:59:54.587Z,45.96
2019-05-05T04:02:51.104Z,45.81
2019-05-05T04:05:24.236Z,45.73
2019-05-05T04:07:51.997Z,46.07
2019-05-05T04:10:19.907Z,46.50
2019-05-05T04:12:47.693Z,46.42
2019-05-05T04:15:15.440Z,45.82
2019-05-05T04:17:57.432Z,47.44
2019-05-05T04:20:53.515Z,45.35
2019-05-05T04:23:21.312Z,46.44
2019-05-05T04:25:49.079Z,46.14
2019-05-05T04:28:16.850Z,45.54
2019-05-05T04:30:44.642Z,45.58
2019-05-05T04:33:14.190Z,46.53
2019-05-05T04:35:41.935Z,45.82
2019-05-05T04:38:13.919Z,49.05
2019-05-05T04:40:58.068Z,47.22
2019-05-05T04:43:31.383Z,46.37
2019-05-05T04:46:02.143Z,48.93
2019-05-05T04:48:37.037Z,46.39
2019-05-05T04:51:10.074Z,47.81
2019-05-05T04:53:56.026Z,47.10
2019-05-05T04:56:30.033Z,48.53
2019-05-05T04:58:57.994Z,48.65
2019-05-05T05:01:27.672Z,48.18
2019-05-05T05:04:13.742Z,48.25
2019-05-05T05:06:47.528Z,47.82
2019-05-05T05:09:15.306Z,48.33
2019-05-05T05:11:44.322Z,48.22
2019-05-05T05:14:14.231Z,48.23
2019-05-05T05:16:43.605Z,48.25
2019-05-05T05:19:11.244Z,48.01
2019-05-05T05:21:39.016Z,48.09
2019-05-05T05:24:06.836Z,47.95
2019-05-05T05:26:34.598Z,47.82
2019-05-05T05:29:04.356Z,48.83
2019-05-05T05:31:33.632Z,46.96
2019-05-05T05:34:01.584Z,48.19
2019-05-05T05:37:38.957Z,47.28
2019-05-05T05:44:33.827Z,46.84
2019-05-05T05:51:04.224Z,48.07
2019-05-05T06:00:09.966Z,47.16
2019-05-05T06:02:37.809Z,46.99
2019-05-05T06:05:05.621Z,48.31
2019-05-05T06:07:33.663Z,49.42
2019-05-05T06:10:03.565Z,49.18
2019-05-05T06:12:31.087Z,49.05
2019-05-05T06:14:58.938Z,51.14
2019-05-05T06:17:26.705Z,48.66
2019-05-05T06:19:54.484Z,49.71
2019-05-05T06:22:29.238Z,49.66
2019-05-05T06:24:55.912Z,47.53
2019-05-05T06:27:44.448Z,49.79
2019-05-05T06:30:13.680Z,50.61
2019-05-05T06:32:43.662Z,48.34
2019-05-05T06:35:11.212Z,50.64
2019-05-05T06:37:43.507Z,51.75
2019-05-05T06:40:13.913Z,50.83
2019-05-05T06:42:59.542Z,51.28
2019-05-05T06:45:35.269Z,50.42
2019-05-05T06:48:04.318Z,48.05
2019-05-05T06:50:32.201Z,47.12
2019-05-05T06:52:59.953Z,44.77
2019-05-05T06:55:27.746Z,47.72
2019-05-05T06:57:55.612Z,48.56
2019-05-05T07:00:24.186Z,47.00
2019-05-05T07:02:54.072Z,45.67
2019-05-05T07:05:23.535Z,47.33
2019-05-05T07:07:51.399Z,46.30
2019-05-05T07:10:19.237Z,46.90
2019-05-05T07:12:47.060Z,46.16
2019-05-05T07:15:19.388Z,45.77
2019-05-05T07:17:44.616Z,47.91
2019-05-05T07:20:13.585Z,49.41
2019-05-05T07:22:55.710Z,47.51
2019-05-05T07:25:11.224Z,47.44
2019-05-05T07:27:39.088Z,47.09
2019-05-05T07:30:06.876Z,47.71
2019-05-05T07:32:34.820Z,47.37
2019-05-05T07:35:28.102Z,48.45
2019-05-05T07:37:55.934Z,48.05
2019-05-05T07:40:27.547Z,44.36
2019-05-05T07:42:55.349Z,45.47
2019-05-05T07:45:25.750Z,45.72
2019-05-05T07:47:54.322Z,48.17
2019-05-05T07:50:31.309Z,46.08
2019-05-05T07:52:51.997Z,44.06
2019-05-05T07:55:20.042Z,46.77
2019-05-05T07:57:47.855Z,46.67
2019-05-05T08:00:15.788Z,46.06
2019-05-05T08:02:43.983Z,45.75
2019-05-05T08:05:13.949Z,44.56
2019-05-05T08:07:41.336Z,45.96
2019-05-05T08:10:09.094Z,44.73
2019-05-05T08:12:36.855Z,45.13
2019-05-05T08:15:04.865Z,45.43
2019-05-05T08:17:44.771Z,47.74
2019-05-05T08:20:23.835Z,44.99
2019-05-05T08:22:53.559Z,45.05
2019-05-05T08:25:39.856Z,45.53
2019-05-05T08:28:12.156Z,46.43
2019-05-05T08:31:04.968Z,46.42
2019-05-05T08:33:33.582Z,44.52
2019-05-05T08:36:04.766Z,46.17
2019-05-05T08:38:34.804Z,46.00
2019-05-05T08:41:04.552Z,47.12
2019-05-05T08:43:34.574Z,44.65
2019-05-05T08:52:50.144Z,44.90
2019-05-05T09:49:29.326Z,44.17
2019-05-05T09:51:57.261Z,44.14
2019-05-05T09:54:25.085Z,44.89
2019-05-05T09:57:24.238Z,44.88
2019-05-05T09:59:54.307Z,44.80
2019-05-05T10:02:24.025Z,44.80
2019-05-05T10:04:52.080Z,44.90
2019-05-05T10:07:24.235Z,46.07
2019-05-05T10:09:53.730Z,45.18
2019-05-05T10:12:24.363Z,43.18
2019-05-05T10:15:15.311Z,44.69
2019-05-05T10:18:14.131Z,44.61
2019-05-05T10:20:42.102Z,45.48
2019-05-05T10:26:10.057Z,43.18
2019-05-05T10:32:09.994Z,43.67
2019-05-05T10:34:39.060Z,45.32
2019-05-05T10:37:07.533Z,43.41
2019-05-05T10:39:40.938Z,44.89
2019-05-05T10:42:08.985Z,43.68
2019-05-05T10:44:36.807Z,43.00
2019-05-05T10:47:05.780Z,44.12
2019-05-05T10:49:44.155Z,44.96
2019-05-05T10:52:14.037Z,43.64
2019-05-05T10:54:44.916Z,44.30
2019-05-05T10:57:11.209Z,44.64
2019-05-05T10:59:38.988Z,44.33
2019-05-05T11:02:06.993Z,45.26
2019-05-05T11:04:34.819Z,44.22
2019-05-05T11:07:04.156Z,44.24
2019-05-05T11:09:33.725Z,44.58
2019-05-05T11:12:01.689Z,44.52
2019-05-05T11:14:29.506Z,44.99
2019-05-05T11:16:57.268Z,44.90
2019-05-05T11:19:25.085Z,45.18
2019-05-05T11:21:54.026Z,45.43
2019-05-05T11:24:29.340Z,45.23
2019-05-05T11:26:57.274Z,45.01
2019-05-05T11:29:25.429Z,43.02
2019-05-05T11:31:53.741Z,46.08
2019-05-05T11:34:25.338Z,44.98
2019-05-05T11:37:15.925Z,44.95
2019-05-05T11:39:44.547Z,44.31
2019-05-05T11:42:14.603Z,44.55
2019-05-05T11:44:53.884Z,45.79
2019-05-05T11:47:37.683Z,44.70
2019-05-05T11:50:13.950Z,43.88
2019-05-05T11:52:44.483Z,44.54
2019-05-05T11:55:14.741Z,45.29
2019-05-05T11:57:43.669Z,46.09
2019-05-05T12:00:11.542Z,45.90
2019-05-05T12:02:40.178Z,45.44
2019-05-05T12:05:09.415Z,44.70
2019-05-05T12:08:06.271Z,43.96
2019-05-05T12:10:51.031Z,46.45
2019-05-05T12:13:18.825Z,41.41
2019-05-05T12:15:48.804Z,41.01
2019-05-05T12:18:26.407Z,42.67
2019-05-05T12:20:54.521Z,42.60
2019-05-05T12:23:22.386Z,41.19
2019-05-05T12:26:04.698Z,42.39
2019-05-05T12:28:36.450Z,42.41
2019-05-05T12:31:06.000Z,41.46
2019-05-05T12:33:33.928Z,39.85
2019-05-05T12:36:01.877Z,40.36
2019-05-05T12:38:29.727Z,42.28
2019-05-05T12:40:57.677Z,42.18
2019-05-05T12:43:25.550Z,42.37
2019-05-05T12:46:04.460Z,42.07
2019-05-05T12:48:34.543Z,40.92
2019-05-05T12:51:04.196Z,42.08
2019-05-05T12:53:32.093Z,42.03
2019-05-05T12:55:59.988Z,39.44
2019-05-05T12:58:27.791Z,38.99
2019-05-05T13:01:08.676Z,41.28
2019-05-05T13:03:36.525Z,39.63
2019-05-05T13:06:04.409Z,39.84
2019-05-05T13:08:34.019Z,41.27
2019-05-05T13:11:03.956Z,41.05
2019-05-05T13:13:31.692Z,41.18
2019-05-05T13:15:59.681Z,40.36
2019-05-05T13:18:27.880Z,38.95
2019-05-05T13:21:05.288Z,39.32
2019-05-05T13:23:58.428Z,41.12
2019-05-05T13:26:34.844Z,39.19
2019-05-05T13:29:11.402Z,40.02
2019-05-05T13:31:39.394Z,40.13
2019-05-05T13:34:07.284Z,40.42
2019-05-05T13:36:35.092Z,39.27
2019-05-05T13:39:04.674Z,39.96
2019-05-05T13:41:33.996Z,39.35
2019-05-05T13:44:04.497Z,37.79
2019-05-05T13:46:33.888Z,38.51
2019-05-05T13:49:28.934Z,39.46
2019-05-05T13:52:01.739Z,37.83
2019-05-05T13:54:29.490Z,36.80
2019-05-05T13:56:57.265Z,39.41
2019-05-05T13:59:26.321Z,38.26
2019-05-05T14:02:06.165Z,40.14
2019-05-05T14:04:34.411Z,38.76
2019-05-05T14:07:04.019Z,39.09
2019-05-05T14:09:32.272Z,39.64
2019-05-05T14:12:03.972Z,38.32
2019-05-05T14:14:33.498Z,38.00
2019-05-05T14:17:04.089Z,37.49
2019-05-05T14:19:34.089Z,38.16
2019-05-05T14:22:28.002Z,36.79
2019-05-05T14:25:01.009Z,36.68
2019-05-05T14:27:28.908Z,38.00
2019-05-05T14:30:11.265Z,37.69
2019-05-05T14:32:39.732Z,38.03
2019-05-05T14:35:35.531Z,38.90
2019-05-05T14:38:06.572Z,37.50
2019-05-05T14:40:37.285Z,38.62
2019-05-05T14:43:05.281Z,38.37
2019-05-05T14:45:34.007Z,38.57
2019-05-05T14:48:07.385Z,36.80
2019-05-05T14:50:35.716Z,38.41
2019-05-05T14:53:27.715Z,38.85
2019-05-05T14:55:55.913Z,38.37
2019-05-05T14:58:23.783Z,39.04
2019-05-05T15:00:51.586Z,36.94
2019-05-05T15:03:19.487Z,37.07
2019-05-05T15:06:38.348Z,36.51
2019-05-05T15:09:44.542Z,37.89
2019-05-05T15:12:23.720Z,36.97
2019-05-05T15:14:51.977Z,38.22
2019-05-05T15:17:19.903Z,36.89
2019-05-05T15:19:47.934Z,37.59
2019-05-05T15:22:15.920Z,37.07
2019-05-05T15:24:44.179Z,36.09
2019-05-05T15:27:12.013Z,37.74
2019-05-05T15:29:39.857Z,36.80
2019-05-05T15:32:07.707Z,37.11
2019-05-05T15:34:35.731Z,38.11
2019-05-05T15:37:03.895Z,37.46
2019-05-05T15:39:33.641Z,37.05
2019-05-05T15:44:57.129Z,37.03
2019-05-05T15:50:40.858Z,37.75
2019-05-05T15:53:10.969Z,36.91
2019-05-05T15:55:39.533Z,35.41
2019-05-05T15:58:09.724Z,35.72
2019-05-05T16:00:48.662Z,35.37
2019-05-05T16:03:17.282Z,36.49
2019-05-05T16:05:45.675Z,37.06
2019-05-05T16:08:15.899Z,35.96
2019-05-05T16:10:46.633Z,35.11
2019-05-05T16:13:35.099Z,37.24
2019-05-05T16:16:14.681Z,35.86
2019-05-05T16:19:05.772Z,36.08
2019-05-05T16:21:46.018Z,36.73
2019-05-05T16:24:20.019Z,35.32
2019-05-05T16:32:59.677Z,34.94
2019-05-05T16:35:27.500Z,35.16
2019-05-05T16:37:55.627Z,34.83
2019-05-05T16:40:25.871Z,34.90
2019-05-05T16:42:54.393Z,35.09
2019-05-05T16:45:24.549Z,34.01
2019-05-05T16:47:51.853Z,34.36
2019-05-05T16:50:22.141Z,33.31
2019-05-05T16:52:56.604Z,32.65
2019-05-05T16:55:41.239Z,32.38
2019-05-05T16:58:09.134Z,34.52
2019-05-05T17:00:38.551Z,34.38
2019-05-05T17:03:06.449Z,33.33
2019-05-05T17:05:34.654Z,34.75
2019-05-05T17:08:04.597Z,33.45
2019-05-05T17:10:34.230Z,35.17
2019-05-05T17:13:11.007Z,34.02
2019-05-05T17:15:48.308Z,34.75
2019-05-05T17:18:36.262Z,37.61
2019-05-05T17:21:17.019Z,33.12
2019-05-05T17:23:44.896Z,36.00
2019-05-05T17:26:14.321Z,35.08
2019-05-05T17:28:46.228Z,35.26
2019-05-05T17:31:40.903Z,36.79
2019-05-05T17:34:16.265Z,36.71
2019-05-05T17:36:45.277Z,36.83
2019-05-05T17:39:13.840Z,35.96
2019-05-05T17:42:00.918Z,35.11
2019-05-05T17:45:04.144Z,36.64
2019-05-05T17:47:40.204Z,35.26
2019-05-05T17:50:37.288Z,37.74
2019-05-05T17:53:27.565Z,35.98
2019-05-05T17:55:59.502Z,35.93
2019-05-05T17:58:27.809Z,36.63
2019-05-05T18:00:58.261Z,35.87
2019-05-05T18:03:37.713Z,35.72
2019-05-05T18:06:19.804Z,37.19
2019-05-05T18:09:05.566Z,36.42
2019-05-05T18:11:47.804Z,35.80
2019-05-05T18:14:56.229Z,36.40
2019-05-05T18:17:26.107Z,36.08
2019-05-05T18:19:54.077Z,34.86
2019-05-05T18:25:47.153Z,35.89
2019-05-05T18:28:19.698Z,35.68
2019-05-05T18:30:44.699Z,36.38
2019-05-05T18:33:13.691Z,37.09
2019-05-05T18:35:41.596Z,37.48
2019-05-05T18:38:09.335Z,37.57
2019-05-05T18:40:37.090Z,37.74
2019-05-05T18:43:09.354Z,36.46
2019-05-05T18:45:37.209Z,38.19
2019-05-05T18:48:19.112Z,37.46
2019-05-05T18:50:47.199Z,36.98
2019-05-05T18:53:14.962Z,37.82
2019-05-05T18:57:24.643Z,38.35
2019-05-05T19:13:56.678Z,38.88
2019-05-05T19:16:25.915Z,37.97
2019-05-05T19:22:13.730Z,38.65
2019-05-05T19:24:41.126Z,39.84
2019-05-05T19:31:26.071Z,38.67
2019-05-05T19:37:26.890Z,39.61
2019-05-05T19:39:56.918Z,39.19
2019-05-05T19:42:24.771Z,37.77
2019-05-05T19:44:54.419Z,37.46
2019-05-05T19:47:24.274Z,38.07
2019-05-05T19:50:36.856Z,39.69
2019-05-05T19:53:06.455Z,39.28
2019-05-05T19:55:36.298Z,40.44
2019-05-05T19:58:04.546Z,38.48
2019-05-05T20:00:34.691Z,38.97
2019-05-05T20:03:05.337Z,41.36
2019-05-05T20:05:34.449Z,40.92
2019-05-05T20:08:03.932Z,39.32
2019-05-05T20:10:50.892Z,40.53
2019-05-05T20:13:18.929Z,39.97
2019-05-05T20:15:56.296Z,41.71
2019-05-05T20:18:24.927Z,38.32
2019-05-05T20:21:03.165Z,38.19
2019-05-05T20:23:24.300Z,39.33
2019-05-05T20:25:53.763Z,38.75
2019-05-05T20:28:24.100Z,39.45
2019-05-05T20:30:54.075Z,39.54
2019-05-05T20:33:28.363Z,38.88
2019-05-05T20:36:03.585Z,40.68
2019-05-05T20:38:59.747Z,39.90
2019-05-05T20:41:27.507Z,40.21
2019-05-05T20:43:55.319Z,40.32
2019-05-05T20:46:23.710Z,40.76
2019-05-05T20:48:54.389Z,39.04
2019-05-05T20:51:24.274Z,40.04
2019-05-05T20:53:54.155Z,39.95
2019-05-05T20:56:21.755Z,38.72
2019-05-05T20:58:49.530Z,40.42
2019-05-05T21:01:17.246Z,38.41
2019-05-05T21:03:44.987Z,39.17
2019-05-05T21:06:13.845Z,39.80
2019-05-05T21:08:43.808Z,38.90
2019-05-05T21:11:11.311Z,39.94
2019-05-05T21:13:39.078Z,40.37
2019-05-05T21:16:06.839Z,41.38
2019-05-05T21:18:34.865Z,40.68
2019-05-05T21:21:04.665Z,41.37
2019-05-05T21:23:35.935Z,38.95
2019-05-05T21:26:06.065Z,40.94
2019-05-05T21:28:35.446Z,39.04
2019-05-05T21:31:04.805Z,40.77
2019-05-05T21:33:34.797Z,38.64
2019-05-05T21:36:04.299Z,40.16
2019-05-05T21:38:31.694Z,39.37
2019-05-05T21:40:59.470Z,40.90
2019-05-05T21:43:27.178Z,40.31
2019-05-05T21:45:55.251Z,39.97
2019-05-05T21:48:24.317Z,40.85
2019-05-05T21:50:58.476Z,40.51
2019-05-05T21:53:35.922Z,40.53
2019-05-05T21:56:26.453Z,40.86
2019-05-05T21:58:54.811Z,40.68
2019-05-05T22:01:26.938Z,39.91
2019-05-05T22:03:53.795Z,40.44
2019-05-05T22:06:23.970Z,40.50
2019-05-05T22:08:53.732Z,39.86
2019-05-05T22:11:21.259Z,40.39
2019-05-05T22:13:49.011Z,39.74
2019-05-05T22:16:16.744Z,40.06
2019-05-05T22:18:56.766Z,38.28
2019-05-05T22:21:54.507Z,39.06
2019-05-05T22:24:23.188Z,40.77
2019-05-05T22:26:50.955Z,39.32
2019-05-05T22:29:18.689Z,39.05
2019-05-05T22:31:46.473Z,38.48
2019-05-05T22:34:14.694Z,38.29
2019-05-05T22:36:52.925Z,39.81
2019-05-05T22:39:18.678Z,40.75
2019-05-05T22:41:46.404Z,41.33
2019-05-05T22:44:14.252Z,41.31
2019-05-05T22:46:42.027Z,40.96
2019-05-05T22:49:10.127Z,41.06
2019-05-05T22:51:38.225Z,40.66
2019-05-05T22:54:06.054Z,39.98
2019-05-05T22:56:34.219Z,40.76
2019-05-05T22:59:04.101Z,40.40
2019-05-05T23:01:54.042Z,40.47
2019-05-05T23:04:43.691Z,37.97
2019-05-05T23:07:24.815Z,40.13
2019-05-05T23:09:53.886Z,39.81
2019-05-05T23:12:21.803Z,38.53
2019-05-05T23:14:49.541Z,39.56
2019-05-05T23:17:45.589Z,40.99
2019-05-05T23:20:28.986Z,40.85
2019-05-05T23:23:09.803Z,41.39
2019-05-05T23:25:40.103Z,40.40
2019-05-05T23:28:07.830Z,40.20
2019-05-05T23:30:41.590Z,40.75
2019-05-05T23:33:05.076Z,40.08
2019-05-05T23:35:43.693Z,40.11
2019-05-05T23:38:11.651Z,40.71
2019-05-05T23:40:39.405Z,39.12
2019-05-05T23:43:07.395Z,40.59
2019-05-05T23:45:35.135Z,40.76
2019-05-05T23:48:03.719Z,40.56
2019-05-05T23:50:33.670Z,41.17
2019-05-05T23:53:01.034Z,39.45
2019-05-05T23:55:28.763Z,41.12
2019-05-05T23:57:56.506Z,40.77
